Time;durP1;ratioP1;P1;durP2;ratioP2;P2;SDS_P1;SDS_P2;PMS_P1;PMS_P2;Temp;Humidity;BMP_temperature;BMP_pressure;BME280_temperature;BME280_humidity;BME280_pressure;Samples;Min_cycle;Max_cycle;Signal;HPM_P1;HPM_P2
2021/05/15 00:02:09;;;;;;;2.45;0.50;;;;;;;;;;5073768;28;20025;-78
2021/05/15 00:04:35;;;;;;;2.30;0.68;;;;;;;;;;5073978;28;20060;-78
2021/05/15 00:07:01;;;;;;;2.10;0.60;;;;;;;;;;5073780;28;20038;-77
2021/05/15 00:09:27;;;;;;;1.55;0.60;;;;;;;;;;5073887;28;20020;-79
2021/05/15 00:11:53;;;;;;;2.42;0.75;;;;;;;;;;5073706;28;20482;-78
2021/05/15 00:14:20;;;;;;;1.73;0.60;;;;;;;;;;5073905;28;20036;-78
2021/05/15 00:16:46;;;;;;;3.67;0.68;;;;;;;;;;5074363;28;20060;-79
2021/05/15 00:19:12;;;;;;;1.85;0.75;;;;;;;;;;5074253;28;20027;-77
2021/05/15 00:21:38;;;;;;;1.75;0.60;;;;;;;;;;5073413;28;20059;-78
2021/05/15 00:24:04;;;;;;;1.65;1.02;;;;;;;;;;5073499;28;20035;-78
2021/05/15 00:26:30;;;;;;;1.20;0.50;;;;;;;;;;5073567;28;20032;-79
2021/05/15 00:28:57;;;;;;;3.60;0.50;;;;;;;;;;5073458;28;20047;-78
2021/05/15 00:31:23;;;;;;;1.83;0.65;;;;;;;;;;5073578;28;20356;-77
2021/05/15 00:33:49;;;;;;;1.40;0.50;;;;;;;;;;5073437;28;20483;-78
2021/05/15 00:36:15;;;;;;;2.05;0.55;;;;;;;;;;5073422;28;20070;-78
2021/05/15 00:38:41;;;;;;;1.83;0.40;;;;;;;;;;5072103;28;20025;-78
2021/05/15 00:41:07;;;;;;;2.28;0.50;;;;;;;;;;5073324;28;20056;-78
2021/05/15 00:43:33;;;;;;;1.33;0.60;;;;;;;;;;5073302;28;20063;-77
2021/05/15 00:45:59;;;;;;;1.80;0.50;;;;;;;;;;5073198;28;20025;-78
2021/05/15 00:48:26;;;;;;;4.32;0.70;;;;;;;;;;5073209;28;20041;-79
2021/05/15 00:50:53;;;;;;;2.80;0.80;;;;;;;;;;5073245;28;20116;-79
2021/05/15 00:53:19;;;;;;;0.70;0.30;;;;;;;;;;5073262;28;20032;-78
2021/05/15 00:55:45;;;;;;;1.83;0.63;;;;;;;;;;5073514;28;20020;-78
2021/05/15 00:58:11;;;;;;;2.30;0.55;;;;;;;;;;5073098;28;20495;-78
2021/05/15 01:00:37;;;;;;;1.25;0.50;;;;;;;;;;5073278;28;20024;-78
2021/05/15 01:03:03;;;;;;;1.85;0.60;;;;;;;;;;5075853;28;20028;-77
2021/05/15 01:05:30;;;;;;;2.00;1.05;;;;;;;;;;5077182;28;20024;-78
2021/05/15 01:07:56;;;;;;;1.80;0.63;;;;;;;;;;5077014;28;20039;-77
2021/05/15 01:10:22;;;;;;;1.55;0.63;;;;;;;;;;5077089;28;20112;-77
2021/05/15 01:12:53;;;;;;;1.42;0.55;;;;;;;;;;5077083;28;20024;-77
2021/05/15 01:15:20;;;;;;;1.13;0.50;;;;;;;;;;5077036;28;20027;-78
2021/05/15 01:17:56;;;;;;;1.92;0.68;;;;;;;;;;5077181;28;20035;-78
2021/05/15 01:20:24;;;;;;;2.03;0.82;;;;;;;;;;5076883;28;20032;-77
2021/05/15 01:22:50;;;;;;;2.55;0.73;;;;;;;;;;5076691;28;20080;-78
2021/05/15 01:25:17;;;;;;;1.95;0.60;;;;;;;;;;5076866;28;20511;-78
2021/05/15 01:27:43;;;;;;;2.58;0.60;;;;;;;;;;5076787;28;20096;-78
2021/05/15 01:30:10;;;;;;;3.65;0.75;;;;;;;;;;5076661;28;20052;-78
2021/05/15 01:32:38;;;;;;;1.90;0.45;;;;;;;;;;5076632;28;20101;-77
2021/05/15 01:35:05;;;;;;;3.03;0.60;;;;;;;;;;5076438;28;20086;-77
2021/05/15 01:37:31;;;;;;;2.17;0.50;;;;;;;;;;5076630;28;20020;-78
2021/05/15 01:39:57;;;;;;;2.53;0.80;;;;;;;;;;5076426;28;20391;-78
2021/05/15 01:42:23;;;;;;;2.85;0.60;;;;;;;;;;5076590;28;20021;-77
2021/05/15 01:44:49;;;;;;;2.58;0.60;;;;;;;;;;5076638;28;20074;-77
2021/05/15 01:47:16;;;;;;;2.00;0.80;;;;;;;;;;5076318;28;20028;-78
2021/05/15 01:49:42;;;;;;;2.15;0.65;;;;;;;;;;5076352;28;20024;-77
2021/05/15 01:52:08;;;;;;;1.35;0.60;;;;;;;;;;5076299;28;20043;-78
2021/05/15 01:54:34;;;;;;;2.20;0.70;;;;;;;;;;5076118;28;20407;-78
2021/05/15 01:57:00;;;;;;;1.67;0.50;;;;;;;;;;5076186;28;20034;-78
2021/05/15 01:59:26;;;;;;;2.63;0.70;;;;;;;;;;5076221;28;20032;-78
2021/05/15 02:01:52;;;;;;;2.55;0.85;;;;;;;;;;5076270;28;20409;-78
2021/05/15 02:04:18;;;;;;;1.88;0.82;;;;;;;;;;5076219;28;20028;-78
2021/05/15 02:06:45;;;;;;;2.40;0.60;;;;;;;;;;5076169;28;20029;-77
2021/05/15 02:09:11;;;;;;;2.08;0.73;;;;;;;;;;5075845;28;20541;-79
2021/05/15 02:11:39;;;;;;;2.53;0.70;;;;;;;;;;5076311;28;20050;-77
2021/05/15 02:14:05;;;;;;;1.98;0.68;;;;;;;;;;5074800;28;20063;-78
2021/05/15 02:16:31;;;;;;;2.90;0.50;;;;;;;;;;5076145;28;20029;-76
2021/05/15 02:18:57;;;;;;;2.55;0.93;;;;;;;;;;5075791;28;20028;-77
2021/05/15 02:21:23;;;;;;;1.63;0.52;;;;;;;;;;5075599;28;20072;-78
2021/05/15 02:23:49;;;;;;;1.15;0.60;;;;;;;;;;5075623;28;20036;-77
2021/05/15 02:26:15;;;;;;;1.60;0.70;;;;;;;;;;5075833;28;20031;-77
2021/05/15 02:28:42;;;;;;;2.75;1.05;;;;;;;;;;5075645;28;20036;-77
2021/05/15 02:31:08;;;;;;;2.35;0.60;;;;;;;;;;5075719;28;20032;-78
2021/05/15 02:33:34;;;;;;;2.08;0.93;;;;;;;;;;5075583;28;20408;-78
2021/05/15 02:36:00;;;;;;;3.50;0.80;;;;;;;;;;5075415;28;20096;-76
2021/05/15 02:38:26;;;;;;;2.63;1.23;;;;;;;;;;5075414;28;20436;-78
2021/05/15 02:40:56;;;;;;;1.90;0.60;;;;;;;;;;5075531;28;20025;-78
2021/05/15 02:43:22;;;;;;;3.38;0.80;;;;;;;;;;5075591;28;20048;-77
2021/05/15 02:45:48;;;;;;;1.35;0.43;;;;;;;;;;5075266;28;20103;-77
2021/05/15 02:48:18;;;;;;;2.38;0.70;;;;;;;;;;5075226;28;20040;-78
2021/05/15 02:50:47;;;;;;;1.63;0.82;;;;;;;;;;5075224;28;20024;-77
2021/05/15 02:53:14;;;;;;;2.78;0.63;;;;;;;;;;5075031;28;20082;-77
2021/05/15 02:55:40;;;;;;;2.42;0.75;;;;;;;;;;5075350;28;20070;-79
2021/05/15 02:58:06;;;;;;;1.92;0.60;;;;;;;;;;5075069;28;20025;-79
2021/05/15 03:00:33;;;;;;;4.10;0.70;;;;;;;;;;5075136;28;20025;-76
2021/05/15 03:02:59;;;;;;;1.52;0.63;;;;;;;;;;5075042;28;20028;-77
2021/05/15 03:05:26;;;;;;;1.27;0.60;;;;;;;;;;5074701;28;20025;-77
2021/05/15 03:07:52;;;;;;;3.65;0.85;;;;;;;;;;5074710;28;20475;-77
2021/05/15 03:10:22;;;;;;;1.50;0.80;;;;;;;;;;5074880;28;20029;-77
2021/05/15 03:12:48;;;;;;;2.10;0.80;;;;;;;;;;5074705;28;20353;-77
2021/05/15 03:15:15;;;;;;;2.17;0.82;;;;;;;;;;5074789;28;20029;-77
2021/05/15 03:17:42;;;;;;;2.85;0.80;;;;;;;;;;5074764;28;20048;-78
2021/05/15 03:20:10;;;;;;;8.38;6.28;;;;;;;;;;5074461;28;20096;-78
2021/05/15 03:22:36;;;;;;;11.30;7.35;;;;;;;;;;5073073;28;20052;-77
2021/05/15 03:25:03;;;;;;;8.82;6.95;;;;;;;;;;5074362;28;20024;-77
2021/05/15 03:27:29;;;;;;;7.70;5.63;;;;;;;;;;5074438;28;20202;-78
2021/05/15 03:29:55;;;;;;;10.73;5.95;;;;;;;;;;5074514;28;20037;-77
2021/05/15 03:32:22;;;;;;;7.82;4.63;;;;;;;;;;5074271;28;20135;-77
2021/05/15 03:34:48;;;;;;;8.00;4.55;;;;;;;;;;5074238;28;20020;-78
2021/05/15 03:37:14;;;;;;;6.47;4.28;;;;;;;;;;5074331;28;20029;-79
2021/05/15 03:39:40;;;;;;;3.95;1.77;;;;;;;;;;5074426;28;20020;-78
2021/05/15 03:42:06;;;;;;;3.85;1.35;;;;;;;;;;5074367;28;20025;-78
2021/05/15 03:44:33;;;;;;;5.93;1.67;;;;;;;;;;5074237;28;20025;-78
2021/05/15 03:46:59;;;;;;;3.30;1.25;;;;;;;;;;5073996;28;20551;-78
2021/05/15 03:49:25;;;;;;;2.63;1.20;;;;;;;;;;5074074;28;20107;-77
2021/05/15 03:51:51;;;;;;;4.05;1.70;;;;;;;;;;5073895;28;20467;-79
2021/05/15 03:54:17;;;;;;;2.17;0.82;;;;;;;;;;5073940;28;20545;-77
2021/05/15 03:56:43;;;;;;;2.65;1.15;;;;;;;;;;5073903;28;20074;-79
2021/05/15 03:59:09;;;;;;;3.85;0.80;;;;;;;;;;5073888;28;20021;-78
2021/05/15 04:01:35;;;;;;;1.63;1.00;;;;;;;;;;5073794;28;20161;-79
2021/05/15 04:04:02;;;;;;;1.20;0.60;;;;;;;;;;5073785;28;20032;-79
2021/05/15 04:06:28;;;;;;;4.07;1.30;;;;;;;;;;5073767;28;20102;-78
2021/05/15 04:08:54;;;;;;;2.90;1.15;;;;;;;;;;5073678;28;20111;-79
2021/05/15 04:11:20;;;;;;;2.53;0.90;;;;;;;;;;5073838;28;20494;-81
2021/05/15 04:13:54;;;;;;;1.65;0.80;;;;;;;;;;5073812;28;20028;-79
2021/05/15 04:19:05;;;;;;;4.07;0.80;;;;;;;;;;5073839;28;20031;-78
2021/05/15 04:21:31;;;;;;;1.60;0.68;;;;;;;;;;5073775;28;20037;-80
2021/05/15 04:23:57;;;;;;;2.40;0.60;;;;;;;;;;5073832;28;20033;-78
2021/05/15 04:26:23;;;;;;;2.92;0.60;;;;;;;;;;5073733;28;20107;-78
2021/05/15 04:28:49;;;;;;;3.13;0.70;;;;;;;;;;5073608;28;20432;-79
2021/05/15 04:31:15;;;;;;;2.63;0.70;;;;;;;;;;5073673;28;20533;-78
2021/05/15 04:33:41;;;;;;;3.20;0.60;;;;;;;;;;5073616;28;20033;-77
2021/05/15 04:36:07;;;;;;;2.78;0.70;;;;;;;;;;5073535;28;20036;-80
2021/05/15 04:38:33;;;;;;;4.25;1.08;;;;;;;;;;5073500;28;20384;-78
2021/05/15 04:40:59;;;;;;;4.03;1.50;;;;;;;;;;5074013;28;20031;-78
2021/05/15 04:43:25;;;;;;;3.40;1.30;;;;;;;;;;5073658;28;20086;-78
2021/05/15 04:45:53;;;;;;;5.32;1.70;;;;;;;;;;5073813;28;20127;-77
2021/05/15 04:48:20;;;;;;;3.70;1.88;;;;;;;;;;5073818;28;20497;-78
2021/05/15 04:50:46;;;;;;;4.00;2.15;;;;;;;;;;5073639;28;20043;-79
2021/05/15 04:53:12;;;;;;;4.50;1.88;;;;;;;;;;5073308;28;20028;-80
2021/05/15 04:55:38;;;;;;;3.42;1.30;;;;;;;;;;5073666;28;20024;-78
2021/05/15 04:58:04;;;;;;;2.92;1.50;;;;;;;;;;5073483;28;20028;-80
2021/05/15 05:00:30;;;;;;;2.90;1.30;;;;;;;;;;5073661;28;20028;-80
2021/05/15 05:02:56;;;;;;;3.80;0.93;;;;;;;;;;5073338;28;20029;-78
2021/05/15 05:05:22;;;;;;;6.18;2.17;;;;;;;;;;5073621;28;20036;-80
2021/05/15 05:07:50;;;;;;;3.03;1.10;;;;;;;;;;5073109;28;20029;-82
2021/05/15 05:10:16;;;;;;;9.13;5.47;;;;;;;;;;5071945;28;20032;-79
2021/05/15 05:12:43;;;;;;;4.28;2.75;;;;;;;;;;5072872;28;20029;-79
2021/05/15 05:15:09;;;;;;;4.63;2.45;;;;;;;;;;5072956;28;20029;-81
2021/05/15 05:17:35;;;;;;;8.63;5.05;;;;;;;;;;5072951;28;20081;-78
2021/05/15 05:20:01;;;;;;;3.13;1.27;;;;;;;;;;5072969;28;20020;-78
2021/05/15 05:22:27;;;;;;;4.50;1.20;;;;;;;;;;5072526;28;20064;-77
2021/05/15 05:24:53;;;;;;;7.75;2.45;;;;;;;;;;5071555;28;20029;-76
2021/05/15 05:27:20;;;;;;;4.68;1.80;;;;;;;;;;5071878;28;20029;-78
2021/05/15 05:29:46;;;;;;;5.65;1.63;;;;;;;;;;5071369;28;20036;-78
2021/05/15 05:32:13;;;;;;;44.90;5.03;;;;;;;;;;5071675;28;20032;-77
2021/05/15 05:34:39;;;;;;;7.32;1.25;;;;;;;;;;5075733;28;20368;-78
2021/05/15 05:37:05;;;;;;;1.83;0.70;;;;;;;;;;5092100;28;20031;-79
2021/05/15 05:39:32;;;;;;;2.80;0.80;;;;;;;;;;5090816;28;20024;-79
2021/05/15 05:41:59;;;;;;;3.45;1.17;;;;;;;;;;5091602;28;20016;-80
2021/05/15 05:44:25;;;;;;;4.38;1.00;;;;;;;;;;5090992;28;20046;-79
2021/05/15 05:46:51;;;;;;;7.50;0.80;;;;;;;;;;5090974;28;20028;-79
2021/05/15 05:49:17;;;;;;;2.88;0.85;;;;;;;;;;5093688;28;20036;-79
2021/05/15 05:51:43;;;;;;;6.82;5.32;;;;;;;;;;5094607;28;20051;-80
2021/05/15 05:54:09;;;;;;;3.65;1.02;;;;;;;;;;5094881;28;20035;-80
2021/05/15 05:56:36;;;;;;;2.03;0.60;;;;;;;;;;5094339;28;20078;-78
2021/05/15 05:59:02;;;;;;;1.95;1.25;;;;;;;;;;5094387;28;20034;-80
2021/05/15 06:01:29;;;;;;;5.38;0.80;;;;;;;;;;5094198;28;20036;-79
2021/05/15 06:03:55;;;;;;;3.75;0.80;;;;;;;;;;5094544;28;20020;-78
2021/05/15 06:06:21;;;;;;;2.95;1.00;;;;;;;;;;5094062;28;20081;-80
2021/05/15 06:08:47;;;;;;;6.80;2.50;;;;;;;;;;5093972;28;20098;-78
2021/05/15 06:11:13;;;;;;;3.88;1.48;;;;;;;;;;5094146;28;20046;-78
2021/05/15 06:13:39;;;;;;;9.75;1.15;;;;;;;;;;5093612;28;20476;-78
2021/05/15 06:16:06;;;;;;;2.03;0.82;;;;;;;;;;5092828;28;20404;-78
2021/05/15 06:18:32;;;;;;;3.92;0.80;;;;;;;;;;5092460;28;20032;-79
2021/05/15 06:20:59;;;;;;;2.67;0.68;;;;;;;;;;5093640;28;20031;-79
2021/05/15 06:23:25;;;;;;;9.88;1.67;;;;;;;;;;5093422;28;20063;-79
2021/05/15 06:25:52;;;;;;;3.40;1.00;;;;;;;;;;5093835;28;20024;-79
2021/05/15 06:28:18;;;;;;;2.40;0.80;;;;;;;;;;5092139;28;20444;-79
2021/05/15 06:30:44;;;;;;;2.65;1.25;;;;;;;;;;5093492;28;20024;-79
2021/05/15 06:33:11;;;;;;;3.15;1.10;;;;;;;;;;5093734;28;20133;-78
2021/05/15 06:35:37;;;;;;;2.05;0.70;;;;;;;;;;5093207;28;20024;-79
2021/05/15 06:38:05;;;;;;;2.92;0.80;;;;;;;;;;5093516;28;20031;-78
2021/05/15 06:40:32;;;;;;;2.92;0.90;;;;;;;;;;5092975;28;20028;-80
2021/05/15 06:42:58;;;;;;;2.88;0.98;;;;;;;;;;5093562;28;20070;-80
2021/05/15 06:45:24;;;;;;;2.53;0.70;;;;;;;;;;5093372;28;20478;-77
2021/05/15 06:47:52;;;;;;;5.85;1.05;;;;;;;;;;5093244;28;20043;-81
2021/05/15 06:50:18;;;;;;;4.80;0.73;;;;;;;;;;5093519;28;20441;-79
2021/05/15 06:52:44;;;;;;;2.30;0.55;;;;;;;;;;5093136;28;20051;-81
2021/05/15 06:55:11;;;;;;;5.78;0.60;;;;;;;;;;5093262;28;20032;-80
2021/05/15 06:57:37;;;;;;;7.72;3.33;;;;;;;;;;5093034;28;20062;-80
2021/05/15 07:00:04;;;;;;;6.47;2.63;;;;;;;;;;5092438;28;20073;-83
2021/05/15 07:02:31;;;;;;;4.07;1.73;;;;;;;;;;5092908;28;20526;-82
2021/05/15 07:04:57;;;;;;;2.30;0.75;;;;;;;;;;5093084;28;20478;-80
2021/05/15 07:07:23;;;;;;;3.45;0.90;;;;;;;;;;5093014;28;20107;-81
2021/05/15 07:09:52;;;;;;;1.70;0.50;;;;;;;;;;5092583;28;20031;-78
2021/05/15 07:12:18;;;;;;;3.15;0.95;;;;;;;;;;5091672;28;20032;-82
2021/05/15 07:14:45;;;;;;;1.92;0.63;;;;;;;;;;5092476;28;20395;-79
2021/05/15 07:17:11;;;;;;;19.75;2.83;;;;;;;;;;5091777;28;20094;-84
2021/05/15 07:19:38;;;;;;;6.35;0.70;;;;;;;;;;5092210;28;20043;-79
2021/05/15 07:22:04;;;;;;;8.05;0.80;;;;;;;;;;5092605;28;20598;-79
2021/05/15 07:24:30;;;;;;;4.07;0.60;;;;;;;;;;5092481;28;20052;-81
2021/05/15 07:26:56;;;;;;;5.00;0.60;;;;;;;;;;5092287;28;20082;-79
2021/05/15 07:29:23;;;;;;;0.90;0.40;;;;;;;;;;5092104;28;20036;-78
2021/05/15 07:31:49;;;;;;;1.55;0.60;;;;;;;;;;5092329;28;20091;-79
2021/05/15 07:34:15;;;;;;;8.05;0.90;;;;;;;;;;5092317;28;20024;-80
2021/05/15 07:36:41;;;;;;;3.08;0.50;;;;;;;;;;5092445;28;20028;-81
2021/05/15 07:39:07;;;;;;;3.63;0.70;;;;;;;;;;5092390;28;20024;-78
2021/05/15 07:41:33;;;;;;;2.63;0.65;;;;;;;;;;5091175;28;20035;-82
2021/05/15 07:44:00;;;;;;;11.02;1.20;;;;;;;;;;5092601;28;20028;-78
2021/05/15 07:46:26;;;;;;;10.65;2.58;;;;;;;;;;5092149;28;20068;-79
2021/05/15 07:48:52;;;;;;;3.15;0.85;;;;;;;;;;5091718;28;20036;-80
2021/05/15 07:51:22;;;;;;;15.27;2.08;;;;;;;;;;5092048;28;20035;-78
2021/05/15 07:53:56;;;;;;;7.35;2.22;;;;;;;;;;5090631;28;20097;-81
2021/05/15 07:56:22;;;;;;;6.77;1.87;;;;;;;;;;5092070;28;20036;-80
2021/05/15 07:58:48;;;;;;;3.80;1.00;;;;;;;;;;5091627;28;20279;-80
2021/05/15 08:01:15;;;;;;;2.85;1.20;;;;;;;;;;5091956;28;20103;-78
2021/05/15 08:03:41;;;;;;;4.65;1.75;;;;;;;;;;5091774;28;20028;-81
2021/05/15 08:06:07;;;;;;;4.47;1.60;;;;;;;;;;5091923;28;20246;-78
2021/05/15 08:08:33;;;;;;;4.20;1.70;;;;;;;;;;5091704;28;20043;-81
2021/05/15 08:10:59;;;;;;;3.17;1.52;;;;;;;;;;5091182;28;20439;-78
2021/05/15 08:13:25;;;;;;;5.03;2.00;;;;;;;;;;5091395;28;20370;-78
2021/05/15 08:15:52;;;;;;;3.28;0.70;;;;;;;;;;5093947;28;20086;-79
2021/05/15 08:18:18;;;;;;;5.88;1.23;;;;;;;;;;5091385;28;20024;-79
2021/05/15 08:20:44;;;;;;;5.57;0.77;;;;;;;;;;5098282;28;20083;-80
2021/05/15 08:23:10;;;;;;;2.60;0.60;;;;;;;;;;5111530;28;20055;-78
2021/05/15 08:25:37;;;;;;;10.85;1.05;;;;;;;;;;5111441;28;20539;-79
2021/05/15 08:28:08;;;;;;;10.55;1.50;;;;;;;;;;5109590;28;20039;-79
2021/05/15 08:30:34;;;;;;;11.38;1.67;;;;;;;;;;5111556;28;20059;-79
2021/05/15 08:33:00;;;;;;;6.15;0.90;;;;;;;;;;5111383;28;20434;-78
2021/05/15 08:35:26;;;;;;;3.65;0.98;;;;;;;;;;5111611;28;20505;-79
2021/05/15 08:37:53;;;;;;;3.88;0.93;;;;;;;;;;5111425;28;20023;-77
2021/05/15 08:40:21;;;;;;;4.18;1.00;;;;;;;;;;5093085;28;20039;-78
2021/05/15 08:42:47;;;;;;;4.80;0.90;;;;;;;;;;5091287;28;20028;-79
2021/05/15 08:45:15;;;;;;;5.25;1.75;;;;;;;;;;5090906;28;20537;-79
2021/05/15 08:47:42;;;;;;;4.05;1.20;;;;;;;;;;5091157;28;20055;-78
2021/05/15 08:50:11;;;;;;;3.05;1.48;;;;;;;;;;5090989;28;20813;-79
2021/05/15 08:52:38;;;;;;;5.80;2.00;;;;;;;;;;5091191;28;20027;-78
2021/05/15 08:55:06;;;;;;;3.25;1.17;;;;;;;;;;5091378;28;20024;-78
2021/05/15 08:57:32;;;;;;;3.42;1.20;;;;;;;;;;5091012;28;20475;-78
2021/05/15 08:59:58;;;;;;;2.97;1.40;;;;;;;;;;5091122;28;20034;-78
2021/05/15 09:02:24;;;;;;;4.22;1.40;;;;;;;;;;5091139;28;20028;-77
2021/05/15 09:04:50;;;;;;;4.65;1.38;;;;;;;;;;5091217;28;20028;-79
2021/05/15 09:07:16;;;;;;;3.35;1.25;;;;;;;;;;5090916;28;20028;-79
2021/05/15 09:09:42;;;;;;;2.53;1.02;;;;;;;;;;5091171;28;20391;-77
2021/05/15 09:12:09;;;;;;;4.72;0.90;;;;;;;;;;5090686;28;20031;-79
2021/05/15 09:14:35;;;;;;;4.15;1.13;;;;;;;;;;5091023;28;20043;-79
2021/05/15 09:17:01;;;;;;;3.22;1.00;;;;;;;;;;5091316;28;20028;-80
2021/05/15 09:19:28;;;;;;;3.50;1.35;;;;;;;;;;5091408;28;20019;-80
2021/05/15 09:21:58;;;;;;;3.40;1.17;;;;;;;;;;5091425;28;20052;-78
2021/05/15 09:24:28;;;;;;;2.13;0.80;;;;;;;;;;5094285;28;20028;-79
2021/05/15 09:26:54;;;;;;;4.75;1.45;;;;;;;;;;5096138;28;20424;-79
2021/05/15 09:29:20;;;;;;;3.03;0.95;;;;;;;;;;5095756;28;20043;-81
2021/05/15 09:31:48;;;;;;;3.00;1.20;;;;;;;;;;5096189;28;20059;-77
2021/05/15 09:34:14;;;;;;;3.53;1.13;;;;;;;;;;5095987;28;20039;-80
2021/05/15 09:36:42;;;;;;;3.92;1.42;;;;;;;;;;5096922;28;20028;-79
2021/05/15 09:39:11;;;;;;;4.18;1.42;;;;;;;;;;5096387;28;20548;-77
2021/05/15 09:41:41;;;;;;;3.40;1.38;;;;;;;;;;5095734;28;20039;-77
2021/05/15 09:44:08;;;;;;;4.55;1.65;;;;;;;;;;5095761;28;20130;-77
2021/05/15 09:46:36;;;;;;;4.15;1.30;;;;;;;;;;5095996;28;20479;-77
2021/05/15 09:49:03;;;;;;;6.10;3.40;;;;;;;;;;5094512;28;20399;-77
2021/05/15 09:51:29;;;;;;;5.93;2.05;;;;;;;;;;5095689;28;20488;-77
2021/05/15 09:53:55;;;;;;;4.32;1.83;;;;;;;;;;5095569;28;20407;-77
2021/05/15 09:56:31;;;;;;;9.05;5.68;;;;;;;;;;5095303;28;20024;-77
2021/05/15 09:58:57;;;;;;;3.97;1.73;;;;;;;;;;5095854;28;20024;-77
2021/05/15 10:01:24;;;;;;;3.42;1.13;;;;;;;;;;5095181;28;20028;-76
2021/05/15 10:03:58;;;;;;;4.57;0.73;;;;;;;;;;5095543;28;20110;-76
2021/05/15 10:06:24;;;;;;;4.30;1.30;;;;;;;;;;5095140;28;20028;-78
2021/05/15 10:08:50;;;;;;;4.55;1.48;;;;;;;;;;5095598;28;20050;-76
2021/05/15 10:11:17;;;;;;;2.97;1.10;;;;;;;;;;5095043;28;20026;-77
2021/05/15 10:13:43;;;;;;;4.95;1.45;;;;;;;;;;5095295;28;20024;-77
2021/05/15 10:16:09;;;;;;;4.70;1.10;;;;;;;;;;5095084;28;20084;-76
2021/05/15 10:18:35;;;;;;;3.00;1.75;;;;;;;;;;5094909;28;20103;-76
2021/05/15 10:21:03;;;;;;;2.55;1.50;;;;;;;;;;5108873;28;20028;-77
2021/05/15 10:23:35;;;;;;;4.88;1.20;;;;;;;;;;5114969;28;20104;-79
2021/05/15 10:26:03;;;;;;;3.10;1.00;;;;;;;;;;5115372;28;20122;-77
2021/05/15 10:28:30;;;;;;;5.43;2.78;;;;;;;;;;5102156;28;20047;-77
2021/05/15 10:31:07;;;;;;;3.25;0.70;;;;;;;;;;5094835;28;20024;-76
2021/05/15 10:33:33;;;;;;;2.65;1.10;;;;;;;;;;5094448;28;20394;-77
2021/05/15 10:36:03;;;;;;;2.47;2.00;;;;;;;;;;5105908;28;20039;-77
2021/05/15 10:38:33;;;;;;;3.17;1.35;;;;;;;;;;5114964;28;20079;-77
2021/05/15 10:41:10;;;;;;;1.88;1.10;;;;;;;;;;5102238;28;20039;-76
2021/05/15 10:43:37;;;;;;;3.90;1.25;;;;;;;;;;5093564;28;20032;-77
2021/05/15 10:46:22;;;;;;;3.03;1.20;;;;;;;;;;5093996;28;20056;-77
2021/05/15 10:49:08;;;;;;;2.85;0.80;;;;;;;;;;5094891;28;20032;-78
2021/05/15 10:51:56;;;;;;;3.28;1.00;;;;;;;;;;5095561;28;20020;-78
2021/05/15 10:54:36;;;;;;;4.38;1.00;;;;;;;;;;5094476;28;20027;-77
2021/05/15 10:57:06;;;;;;;3.10;1.33;;;;;;;;;;5094849;28;20050;-77
2021/05/15 10:59:32;;;;;;;4.45;1.77;;;;;;;;;;5094216;28;20016;-78
2021/05/15 11:01:59;;;;;;;5.97;1.25;;;;;;;;;;5094219;28;20558;-78
2021/05/15 11:04:26;;;;;;;2.78;1.33;;;;;;;;;;5094319;28;20115;-78
2021/05/15 11:07:11;;;;;;;5.65;1.30;;;;;;;;;;5094908;28;20383;-78
2021/05/15 11:09:58;;;;;;;3.90;1.10;;;;;;;;;;5094091;28;20097;-78
2021/05/15 11:12:25;;;;;;;5.50;1.63;;;;;;;;;;5094176;28;20368;-78
2021/05/15 11:14:52;;;;;;;2.50;1.38;;;;;;;;;;5094004;28;20039;-78
2021/05/15 11:17:21;;;;;;;4.22;1.20;;;;;;;;;;5093936;28;20471;-78
2021/05/15 11:20:06;;;;;;;5.20;1.23;;;;;;;;;;5099665;28;20028;-78
2021/05/15 11:22:51;;;;;;;3.22;1.00;;;;;;;;;;5098301;28;20563;-77
2021/05/15 11:25:20;;;;;;;3.33;1.20;;;;;;;;;;5114187;28;20028;-78
2021/05/15 11:27:48;;;;;;;3.40;1.00;;;;;;;;;;5097861;28;20135;-77
2021/05/15 11:30:33;;;;;;;4.30;1.45;;;;;;;;;;5093839;28;20114;-76
2021/05/15 11:33:01;;;;;;;4.57;1.00;;;;;;;;;;5094763;28;20028;-78
2021/05/15 11:35:27;;;;;;;6.18;1.58;;;;;;;;;;5093652;28;20494;-77
2021/05/15 11:38:00;;;;;;;4.82;1.35;;;;;;;;;;5093569;28;20035;-78
2021/05/15 11:40:26;;;;;;;2.70;1.23;;;;;;;;;;5093907;28;20435;-78
2021/05/15 11:42:56;;;;;;;4.57;0.93;;;;;;;;;;5094492;28;20048;-77
2021/05/15 11:45:26;;;;;;;2.83;0.90;;;;;;;;;;5093147;28;20016;-78
2021/05/15 11:48:03;;;;;;;3.13;0.90;;;;;;;;;;5093277;28;20054;-77
2021/05/15 11:50:30;;;;;;;2.22;1.05;;;;;;;;;;5093627;28;20028;-77
2021/05/15 11:53:02;;;;;;;4.88;0.90;;;;;;;;;;5093245;28;20479;-77
2021/05/15 11:55:28;;;;;;;2.75;0.93;;;;;;;;;;5093444;28;20115;-77
2021/05/15 11:57:57;;;;;;;2.30;1.10;;;;;;;;;;5093019;28;20028;-77
2021/05/15 12:00:27;;;;;;;6.25;1.55;;;;;;;;;;5093179;28;20054;-79
2021/05/15 12:02:53;;;;;;;3.35;1.10;;;;;;;;;;5093190;28;20133;-77
2021/05/15 12:05:20;;;;;;;4.15;1.67;;;;;;;;;;5093351;28;20084;-78
2021/05/15 12:07:50;;;;;;;2.40;0.85;;;;;;;;;;5092859;28;20028;-78
2021/05/15 12:10:18;;;;;;;14.63;11.80;;;;;;;;;;5093224;28;20562;-78
2021/05/15 12:12:57;;;;;;;18.38;15.15;;;;;;;;;;5092968;28;20020;-77
2021/05/15 12:15:24;;;;;;;4.72;2.50;;;;;;;;;;5093918;28;20032;-77
2021/05/15 12:17:50;;;;;;;2.15;0.50;;;;;;;;;;5093882;28;20020;-77
2021/05/15 12:20:30;;;;;;;1.65;0.90;;;;;;;;;;5096344;28;20479;-77
2021/05/15 12:23:15;;;;;;;5.10;3.65;;;;;;;;;;5095651;28;20039;-78
2021/05/15 12:25:44;;;;;;;12.32;7.93;;;;;;;;;;5111437;28;20445;-79
2021/05/15 12:28:20;;;;;;;5.45;3.30;;;;;;;;;;5112926;28;20107;-79
2021/05/15 12:30:46;;;;;;;2.53;1.05;;;;;;;;;;5112739;28;20066;-78
2021/05/15 12:33:16;;;;;;;2.05;0.50;;;;;;;;;;5113288;28;20467;-80
2021/05/15 12:35:43;;;;;;;2.35;0.60;;;;;;;;;;5113270;28;20031;-80
2021/05/15 12:38:09;;;;;;;4.68;0.57;;;;;;;;;;5112987;28;20051;-78
2021/05/15 12:40:35;;;;;;;1.55;0.40;;;;;;;;;;5098469;28;20051;-78
2021/05/15 12:43:08;;;;;;;1.88;0.80;;;;;;;;;;5080097;28;20387;-78
2021/05/15 12:45:38;;;;;;;1.50;0.45;;;;;;;;;;5072447;28;20085;-78
2021/05/15 12:48:05;;;;;;;1.20;0.43;;;;;;;;;;5072176;28;20032;-79
2021/05/15 12:50:32;;;;;;;0.88;0.45;;;;;;;;;;5072644;28;20036;-78
2021/05/15 12:53:12;;;;;;;1.45;0.40;;;;;;;;;;5072244;28;20036;-78
2021/05/15 12:55:57;;;;;;;3.17;0.70;;;;;;;;;;5072551;28;20155;-78
2021/05/15 12:58:24;;;;;;;2.70;0.45;;;;;;;;;;5074456;28;20048;-77
2021/05/15 13:01:04;;;;;;;0.82;0.60;;;;;;;;;;5079481;28;20488;-77
2021/05/15 13:03:31;;;;;;;3.17;1.27;;;;;;;;;;5096893;28;20031;-77
2021/05/15 13:05:57;;;;;;;2.25;0.50;;;;;;;;;;5097418;28;20425;-77
2021/05/15 13:08:31;;;;;;;1.17;0.57;;;;;;;;;;5096406;28;20032;-77
2021/05/15 13:11:08;;;;;;;1.35;0.60;;;;;;;;;;5096632;28;20032;-77
2021/05/15 13:13:34;;;;;;;1.10;0.60;;;;;;;;;;5097948;28;20070;-78
2021/05/15 13:16:01;;;;;;;1.75;0.52;;;;;;;;;;5095943;28;20020;-77
2021/05/15 13:18:27;;;;;;;2.15;0.50;;;;;;;;;;5096406;28;20028;-77
2021/05/15 13:20:53;;;;;;;2.97;0.70;;;;;;;;;;5096662;28;20036;-78
2021/05/15 13:23:19;;;;;;;3.83;0.70;;;;;;;;;;5096094;28;20082;-78
2021/05/15 13:25:45;;;;;;;4.10;0.80;;;;;;;;;;5096889;28;20475;-77
2021/05/15 13:28:11;;;;;;;2.10;0.80;;;;;;;;;;5097203;28;20059;-77
2021/05/15 13:30:38;;;;;;;3.03;0.90;;;;;;;;;;5097116;28;20036;-78
2021/05/15 13:33:05;;;;;;;1.55;0.60;;;;;;;;;;5096840;28;20020;-77
2021/05/15 13:35:31;;;;;;;2.35;0.60;;;;;;;;;;5095165;28;20131;-78
2021/05/15 13:37:57;;;;;;;3.35;1.27;;;;;;;;;;5096998;28;20103;-79
2021/05/15 13:40:23;;;;;;;1.38;0.70;;;;;;;;;;5095590;28;20050;-78
2021/05/15 13:42:49;;;;;;;3.10;0.80;;;;;;;;;;5096903;28;20028;-79
2021/05/15 13:45:15;;;;;;;1.55;0.52;;;;;;;;;;5096787;28;20020;-78
2021/05/15 13:47:49;;;;;;;1.88;0.57;;;;;;;;;;5095388;28;20028;-77
2021/05/15 13:50:15;;;;;;;2.70;0.60;;;;;;;;;;5096812;28;20111;-77
2021/05/15 13:52:41;;;;;;;2.15;0.68;;;;;;;;;;5097035;28;20452;-77
2021/05/15 13:55:08;;;;;;;5.32;0.85;;;;;;;;;;5096557;28;20039;-80
2021/05/15 13:57:34;;;;;;;2.72;0.93;;;;;;;;;;5096567;28;20024;-80
2021/05/15 14:00:00;;;;;;;2.05;0.70;;;;;;;;;;5096547;28;20032;-79
2021/05/15 14:02:26;;;;;;;2.45;0.57;;;;;;;;;;5096475;28;20463;-79
2021/05/15 14:04:55;;;;;;;1.15;0.60;;;;;;;;;;5096157;28;20032;-79
2021/05/15 14:07:22;;;;;;;24.13;18.95;;;;;;;;;;5091774;28;20129;-80
2021/05/15 14:09:48;;;;;;;5.95;4.57;;;;;;;;;;5094411;28;20475;-81
2021/05/15 14:12:14;;;;;;;4.93;2.60;;;;;;;;;;5095575;28;20023;-81
2021/05/15 14:14:40;;;;;;;3.17;0.80;;;;;;;;;;5095572;28;20024;-80
2021/05/15 14:17:08;;;;;;;3.38;0.77;;;;;;;;;;5095557;28;20059;-79
2021/05/15 14:19:35;;;;;;;2.33;0.93;;;;;;;;;;5095872;28;20129;-79
2021/05/15 14:22:01;;;;;;;2.55;1.00;;;;;;;;;;5095950;28;20051;-78
2021/05/15 14:24:27;;;;;;;4.25;1.02;;;;;;;;;;5094817;28;20093;-81
2021/05/15 14:26:54;;;;;;;1.65;0.73;;;;;;;;;;5085506;28;20031;-80
2021/05/15 14:29:20;;;;;;;3.20;0.65;;;;;;;;;;5081784;28;20039;-80
2021/05/15 14:31:46;;;;;;;1.27;0.70;;;;;;;;;;5096248;28;20039;-78
2021/05/15 14:34:12;;;;;;;2.95;0.80;;;;;;;;;;5096171;28;20043;-81
2021/05/15 14:36:39;;;;;;;3.72;1.20;;;;;;;;;;5095955;28;20074;-83
2021/05/15 14:39:05;;;;;;;2.03;0.80;;;;;;;;;;5095755;28;20070;-80
2021/05/15 14:41:31;;;;;;;5.32;0.88;;;;;;;;;;5095582;28;20028;-81
2021/05/15 14:43:58;;;;;;;2.92;0.90;;;;;;;;;;5077552;28;20032;-81
2021/05/15 14:46:24;;;;;;;2.70;1.48;;;;;;;;;;5095742;28;20016;-80
2021/05/15 14:48:50;;;;;;;2.63;0.82;;;;;;;;;;5094194;28;20097;-82